createdAt,value
2023-02-01T00:01:14.848Z,8.43
2023-02-01T00:03:42.442Z,5.55
2023-02-01T00:06:10.474Z,5.80
2023-02-01T00:08:38.307Z,6.17
2023-02-01T00:11:09.829Z,5.95
2023-02-01T00:13:41.280Z,4.55
2023-02-01T00:16:18.360Z,6.15
2023-02-01T00:18:53.071Z,6.15
2023-02-01T00:21:22.245Z,5.50
2023-02-01T00:23:49.992Z,4.80
2023-02-01T00:26:26.145Z,5.90
2023-02-01T00:28:54.199Z,7.18
2023-02-01T00:31:22.263Z,5.32
2023-02-01T00:33:51.136Z,5.72
2023-02-01T00:36:19.153Z,4.72
2023-02-01T00:38:47.464Z,3.78
2023-02-01T00:41:19.411Z,4.03
2023-02-01T00:43:48.820Z,5.57
2023-02-01T00:46:19.550Z,3.90
2023-02-01T00:48:48.360Z,4.55
2023-02-01T00:51:26.490Z,4.88
2023-02-01T00:53:54.733Z,4.60
2023-02-01T00:56:23.003Z,4.10
2023-02-01T00:58:50.789Z,6.07
2023-02-01T01:01:24.073Z,5.95
2023-02-01T01:03:56.868Z,4.45
2023-02-01T01:06:32.140Z,4.00
2023-02-01T01:09:03.859Z,4.22
2023-02-01T01:11:35.606Z,4.22
2023-02-01T01:14:04.693Z,6.70
2023-02-01T01:19:02.772Z,3.63
2023-02-01T01:21:32.285Z,6.28
2023-02-01T01:24:00.711Z,5.60
2023-02-01T01:26:30.764Z,3.90
2023-02-01T01:29:00.164Z,5.10
2023-02-01T01:31:29.088Z,7.57
2023-02-01T01:36:28.064Z,4.03
2023-02-01T01:38:56.666Z,5.68
2023-02-01T01:41:30.128Z,3.95
2023-02-01T01:44:07.892Z,9.05
2023-02-01T01:46:42.110Z,5.07
2023-02-01T01:49:25.118Z,4.35
2023-02-01T01:52:02.186Z,4.32
2023-02-01T01:54:46.837Z,4.07
2023-02-01T01:57:23.418Z,6.13
2023-02-01T02:00:04.116Z,7.57
2023-02-01T02:02:44.578Z,4.13
2023-02-01T02:05:15.076Z,3.30
2023-02-01T02:07:48.159Z,5.30
2023-02-01T02:10:17.363Z,2.80
2023-02-01T02:12:48.856Z,5.90
2023-02-01T02:15:18.212Z,4.13
2023-02-01T02:18:19.071Z,4.25
2023-02-01T02:20:50.123Z,3.00
2023-02-01T02:23:52.667Z,4.68
2023-02-01T02:26:46.163Z,3.55
2023-02-01T02:29:57.928Z,5.97
2023-02-01T02:33:05.292Z,3.35
2023-02-01T02:35:57.057Z,2.22
2023-02-01T02:38:30.830Z,4.13
2023-02-01T02:41:07.308Z,3.25
2023-02-01T02:44:12.217Z,4.70
2023-02-01T02:47:06.487Z,3.20
2023-02-01T02:50:27.575Z,3.30
2023-02-01T02:53:43.227Z,2.90
2023-02-01T02:56:31.658Z,2.38
2023-02-01T02:59:19.178Z,2.90
2023-02-01T03:02:06.018Z,2.42
2023-02-01T03:04:33.752Z,6.45
2023-02-01T03:07:50.657Z,5.00
2023-02-01T03:10:52.852Z,2.97
2023-02-01T03:13:43.899Z,4.70
2023-02-01T03:16:19.822Z,4.70
2023-02-01T03:19:12.167Z,4.47
2023-02-01T03:21:44.402Z,4.30
2023-02-01T03:24:42.767Z,4.85
2023-02-01T03:27:27.230Z,3.88
2023-02-01T03:30:18.809Z,4.25
2023-02-01T03:33:00.875Z,5.07
2023-02-01T03:35:49.298Z,4.38
2023-02-01T03:38:39.738Z,6.28
2023-02-01T03:41:37.184Z,3.28
2023-02-01T03:44:07.805Z,3.38
2023-02-01T03:46:44.623Z,4.43
2023-02-01T03:49:31.411Z,6.93
2023-02-01T03:52:01.615Z,5.50
2023-02-01T03:54:31.291Z,4.32
2023-02-01T03:57:06.281Z,4.10
2023-02-01T03:59:33.952Z,3.28
2023-02-01T04:02:01.894Z,5.85
2023-02-01T04:04:29.648Z,3.33
2023-02-01T04:06:58.034Z,3.67
2023-02-01T04:09:26.116Z,5.80
2023-02-01T04:11:53.759Z,3.80
2023-02-01T04:14:21.430Z,3.67
2023-02-01T04:16:49.368Z,3.42
2023-02-01T04:19:17.308Z,3.65
2023-02-01T04:21:45.272Z,3.55
2023-02-01T04:24:13.154Z,3.97
2023-02-01T04:26:40.755Z,4.78
2023-02-01T04:29:10.992Z,4.30
2023-02-01T04:31:38.803Z,3.92
2023-02-01T04:34:06.444Z,3.03
2023-02-01T04:36:34.067Z,2.67
2023-02-01T04:39:01.567Z,3.13
2023-02-01T04:41:30.008Z,3.83
2023-02-01T04:43:57.761Z,4.30
2023-02-01T04:46:25.561Z,4.35
2023-02-01T04:48:53.245Z,3.60
2023-02-01T04:51:21.054Z,3.80
2023-02-01T04:53:48.800Z,3.53
2023-02-01T04:56:16.516Z,4.93
2023-02-01T04:58:44.137Z,3.55
2023-02-01T05:01:11.768Z,3.70
2023-02-01T05:03:39.601Z,6.50
2023-02-01T05:06:07.210Z,5.72
2023-02-01T05:08:35.969Z,3.60
2023-02-01T05:11:05.027Z,4.10
2023-02-01T05:13:50.505Z,3.45
2023-02-01T05:16:18.521Z,3.92
2023-02-01T05:18:50.064Z,2.83
2023-02-01T05:21:18.293Z,3.80
2023-02-01T05:24:04.402Z,3.63
2023-02-01T05:26:32.629Z,3.85
2023-02-01T05:29:01.068Z,3.53
2023-02-01T05:31:29.031Z,4.47
2023-02-01T05:33:56.858Z,2.40
2023-02-01T05:36:24.906Z,3.22
2023-02-01T05:38:52.701Z,2.38
2023-02-01T05:41:20.423Z,2.92
2023-02-01T05:43:48.291Z,2.63
2023-02-01T05:46:16.098Z,3.75
2023-02-01T05:48:44.093Z,3.58
2023-02-01T05:51:12.652Z,4.28
2023-02-01T05:53:40.531Z,3.53
2023-02-01T05:56:08.756Z,5.65
2023-02-01T05:58:36.385Z,3.07
2023-02-01T06:01:05.112Z,4.22
2023-02-01T06:03:32.901Z,6.13
2023-02-01T06:06:02.114Z,3.72
2023-02-01T06:08:29.920Z,3.08
2023-02-01T06:11:03.904Z,3.72
2023-02-01T06:13:34.295Z,3.72
2023-02-01T06:16:04.423Z,3.75
2023-02-01T06:18:32.487Z,3.28
2023-02-01T06:21:01.789Z,5.72
2023-02-01T06:23:31.329Z,5.22
2023-02-01T06:26:10.861Z,5.57
2023-02-01T06:28:39.675Z,4.90
2023-02-01T06:31:08.418Z,8.63
2023-02-01T06:33:37.504Z,4.38
2023-02-01T06:36:08.577Z,3.40
2023-02-01T06:38:36.981Z,6.80
2023-02-01T06:41:05.952Z,5.80
2023-02-01T06:43:33.908Z,5.32
2023-02-01T06:46:08.736Z,4.80
2023-02-01T06:48:36.572Z,9.45
2023-02-01T06:51:05.453Z,4.05
2023-02-01T06:53:36.175Z,6.22
2023-02-01T06:56:04.959Z,5.32
2023-02-01T06:58:34.958Z,6.30
2023-02-01T07:01:07.928Z,6.50
2023-02-01T07:03:35.750Z,5.80
2023-02-01T07:06:04.596Z,6.35
2023-02-01T07:08:35.282Z,5.07
2023-02-01T07:11:12.106Z,5.63
2023-02-01T07:13:40.741Z,4.22
2023-02-01T07:16:16.259Z,6.18
2023-02-01T07:18:49.095Z,7.65
2023-02-01T07:21:16.848Z,5.90
2023-02-01T07:23:44.782Z,4.60
2023-02-01T07:26:15.293Z,4.80
2023-02-01T07:28:43.494Z,10.07
2023-02-01T07:31:19.954Z,3.22
2023-02-01T07:33:48.425Z,5.97
2023-02-01T07:36:18.049Z,4.20
2023-02-01T07:38:47.992Z,4.18
2023-02-01T07:41:16.449Z,4.38
2023-02-01T07:43:44.657Z,4.03
2023-02-01T07:46:13.355Z,2.83
2023-02-01T07:48:41.006Z,4.18
2023-02-01T07:51:13.326Z,7.72
2023-02-01T07:53:42.671Z,6.38
2023-02-01T07:56:16.850Z,5.10
2023-02-01T07:58:50.527Z,4.45
2023-02-01T08:01:25.791Z,5.07
2023-02-01T08:04:02.646Z,8.40
2023-02-01T08:06:33.796Z,5.60
2023-02-01T08:09:02.326Z,5.85
2023-02-01T08:11:30.779Z,3.05
2023-02-01T08:14:00.401Z,6.05
2023-02-01T08:16:28.309Z,3.60
2023-02-01T08:18:56.855Z,3.90
2023-02-01T08:21:39.439Z,5.72
2023-02-01T08:24:11.243Z,5.80
2023-02-01T08:26:39.058Z,4.68
2023-02-01T08:29:09.466Z,6.22
2023-02-01T08:31:41.537Z,4.95
2023-02-01T08:34:10.548Z,8.30
2023-02-01T08:36:39.275Z,5.68
2023-02-01T08:39:10.027Z,5.72
2023-02-01T08:41:38.775Z,3.83
2023-02-01T08:44:06.614Z,4.93
2023-02-01T08:46:34.302Z,4.85
2023-02-01T08:49:01.918Z,5.40
2023-02-01T08:51:29.528Z,4.97
2023-02-01T08:53:57.071Z,7.43
2023-02-01T08:56:24.672Z,6.97
2023-02-01T08:58:52.386Z,6.70
2023-02-01T09:01:20.304Z,6.25
2023-02-01T09:03:48.050Z,7.95
2023-02-01T09:06:17.083Z,4.63
2023-02-01T09:08:45.688Z,4.55
2023-02-01T09:11:18.112Z,4.25
2023-02-01T09:13:46.637Z,9.05
2023-02-01T09:16:14.876Z,4.53
2023-02-01T09:18:55.329Z,6.53
2023-02-01T09:21:30.275Z,4.65
2023-02-01T09:23:57.918Z,3.15
2023-02-01T09:26:32.033Z,6.95
2023-02-01T09:29:01.405Z,5.70
2023-02-01T09:31:29.399Z,5.90
2023-02-01T09:33:57.657Z,5.10
2023-02-01T09:36:25.500Z,5.40
2023-02-01T09:38:54.309Z,5.00
2023-02-01T09:41:38.923Z,4.43
2023-02-01T09:44:42.405Z,8.05
2023-02-01T09:47:18.784Z,7.88
2023-02-01T09:50:23.679Z,5.70
2023-02-01T09:53:06.509Z,6.40
2023-02-01T09:55:51.047Z,7.82
2023-02-01T09:58:31.211Z,4.85
2023-02-01T10:01:01.475Z,6.53
2023-02-01T10:03:34.333Z,8.07
2023-02-01T10:06:52.375Z,7.28
2023-02-01T10:09:43.876Z,6.60
2023-02-01T10:12:33.878Z,8.63
2023-02-01T10:15:19.587Z,7.72
2023-02-01T10:18:15.743Z,5.03
2023-02-01T10:21:05.414Z,10.30
2023-02-01T10:24:21.399Z,7.53
2023-02-01T10:27:13.420Z,10.05
2023-02-01T10:29:44.457Z,11.32
2023-02-01T10:32:18.530Z,9.02
2023-02-01T10:34:57.347Z,12.15
2023-02-01T10:37:35.691Z,10.35
2023-02-01T10:40:27.007Z,10.38
2023-02-01T10:43:03.806Z,11.00
2023-02-01T10:45:34.715Z,11.20
2023-02-01T10:48:05.149Z,13.20
2023-02-01T10:50:53.093Z,13.93
2023-02-01T10:53:38.185Z,9.97
2023-02-01T10:56:15.420Z,9.65
2023-02-01T10:58:48.727Z,20.92
2023-02-01T11:01:40.755Z,9.70
2023-02-01T11:04:14.995Z,12.05
2023-02-01T11:06:54.449Z,14.35
2023-02-01T11:09:26.739Z,8.30
2023-02-01T11:12:01.673Z,13.65
2023-02-01T11:14:40.237Z,13.38
2023-02-01T11:17:20.021Z,12.30
2023-02-01T11:19:58.085Z,14.63
2023-02-01T11:22:29.555Z,12.70
2023-02-01T11:24:58.316Z,15.15
2023-02-01T11:27:28.172Z,13.48
2023-02-01T11:30:27.395Z,12.77
2023-02-01T11:32:55.399Z,8.85
2023-02-01T11:35:24.863Z,14.35
2023-02-01T11:38:02.061Z,12.15
2023-02-01T11:40:37.308Z,17.77
2023-02-01T11:43:29.189Z,17.60
2023-02-01T11:46:03.140Z,14.80
2023-02-01T11:48:34.087Z,21.05
2023-02-01T11:51:45.606Z,15.73
2023-02-01T11:54:56.892Z,11.63
2023-02-01T11:58:12.220Z,11.52
2023-02-01T12:00:59.080Z,12.00
2023-02-01T12:04:01.503Z,19.80
2023-02-01T12:06:52.541Z,13.40
2023-02-01T12:09:38.851Z,18.83
2023-02-01T12:12:59.687Z,19.10
2023-02-01T12:15:51.343Z,18.90
2023-02-01T12:18:54.641Z,14.32
2023-02-01T12:21:55.863Z,15.63
2023-02-01T12:24:51.250Z,21.98
2023-02-01T12:27:50.317Z,12.25
2023-02-01T12:30:52.504Z,12.98
2023-02-01T12:33:35.524Z,10.93
2023-02-01T12:36:22.688Z,16.67
2023-02-01T12:39:19.035Z,17.58
2023-02-01T12:42:04.774Z,14.65
2023-02-01T12:44:44.534Z,17.83
2023-02-01T12:47:21.743Z,15.60
2023-02-01T12:50:26.630Z,18.45
2023-02-01T12:53:10.602Z,15.25
2023-02-01T12:55:53.061Z,20.38
2023-02-01T12:58:28.460Z,15.15
2023-02-01T13:01:13.232Z,18.98
2023-02-01T13:03:40.908Z,17.30
2023-02-01T13:06:29.529Z,14.93
2023-02-01T13:09:20.804Z,11.30
2023-02-01T13:11:53.191Z,13.45
2023-02-01T13:14:32.819Z,18.85
2023-02-01T13:17:06.360Z,18.48
2023-02-01T13:19:52.061Z,11.45
2023-02-01T13:22:36.521Z,16.42
2023-02-01T13:25:21.953Z,18.25
2023-02-01T13:27:50.424Z,13.25
2023-02-01T13:30:40.306Z,18.07
2023-02-01T13:33:54.260Z,18.42
2023-02-01T13:36:31.608Z,15.43
2023-02-01T13:39:39.296Z,14.50
2023-02-01T13:42:36.228Z,21.08
2023-02-01T13:45:21.656Z,18.40
2023-02-01T13:47:54.473Z,19.27
2023-02-01T13:50:37.322Z,14.57
2023-02-01T13:53:14.242Z,16.65
2023-02-01T13:55:56.902Z,16.52
2023-02-01T13:58:38.308Z,15.43
2023-02-01T14:01:24.494Z,12.48
2023-02-01T14:04:06.058Z,14.65
2023-02-01T14:06:35.990Z,11.50
2023-02-01T14:09:33.253Z,18.73
2023-02-01T14:12:44.308Z,20.08
2023-02-01T14:15:32.981Z,12.68
2023-02-01T14:20:46.239Z,13.55
2023-02-01T14:23:19.152Z,11.38
2023-02-01T14:25:48.861Z,9.35
2023-02-01T14:28:29.966Z,7.90
2023-02-01T14:31:00.510Z,15.65
2023-02-01T14:33:29.681Z,12.57
2023-02-01T14:38:39.037Z,16.10
2023-02-01T14:41:27.382Z,8.20
2023-02-01T14:44:04.453Z,14.65
2023-02-01T14:47:23.131Z,13.30
2023-02-01T14:52:43.348Z,15.95
2023-02-01T14:55:31.202Z,11.77
2023-02-01T14:58:03.100Z,9.13
2023-02-01T15:00:34.076Z,11.43
2023-02-01T15:03:46.328Z,16.45
2023-02-01T15:06:34.557Z,11.18
2023-02-01T15:09:56.702Z,18.50
2023-02-01T15:12:32.682Z,14.40
2023-02-01T15:15:22.047Z,15.45
2023-02-01T15:18:01.051Z,23.50
2023-02-01T15:20:32.457Z,13.75
2023-02-01T15:23:05.218Z,14.80
2023-02-01T15:25:37.726Z,15.38
2023-02-01T15:28:10.092Z,12.43
2023-02-01T15:30:38.175Z,12.93
2023-02-01T15:33:24.276Z,14.63
2023-02-01T15:36:09.273Z,10.63
2023-02-01T15:38:40.261Z,22.63
2023-02-01T15:41:22.143Z,15.18
2023-02-01T15:43:55.850Z,14.50
2023-02-01T15:46:33.450Z,10.18
2023-02-01T15:49:01.622Z,12.73
2023-02-01T15:51:33.767Z,14.35
2023-02-01T15:54:09.064Z,12.52
2023-02-01T15:56:42.498Z,15.18
2023-02-01T15:59:45.213Z,13.15
2023-02-01T16:03:27.359Z,15.35
2023-02-01T16:06:07.261Z,16.70
2023-02-01T16:08:37.990Z,20.90
2023-02-01T16:11:31.962Z,12.35
2023-02-01T16:14:01.707Z,19.27
2023-02-01T16:16:30.728Z,14.23
2023-02-01T16:18:58.587Z,19.00
2023-02-01T16:21:26.534Z,15.40
2023-02-01T16:23:56.746Z,14.13
2023-02-01T16:26:24.440Z,13.43
2023-02-01T16:28:52.081Z,12.68
2023-02-01T16:31:28.390Z,15.73
2023-02-01T16:33:56.847Z,18.15
2023-02-01T16:36:25.669Z,15.93
2023-02-01T16:38:54.287Z,11.32
2023-02-01T16:41:24.670Z,16.08
2023-02-01T16:43:55.430Z,12.65
2023-02-01T16:46:27.285Z,20.10
2023-02-01T16:48:58.478Z,16.35
2023-02-01T16:51:35.969Z,14.27
2023-02-01T16:54:04.068Z,14.07
2023-02-01T16:56:34.820Z,11.83
2023-02-01T16:59:03.111Z,13.35
2023-02-01T17:01:30.793Z,11.77
2023-02-01T17:03:58.734Z,18.17
2023-02-01T17:06:28.505Z,17.38
2023-02-01T17:08:59.398Z,10.30
2023-02-01T17:11:30.928Z,17.95
2023-02-01T17:14:16.314Z,12.88
2023-02-01T17:16:47.127Z,13.43
2023-02-01T17:19:18.791Z,13.30
2023-02-01T17:21:52.525Z,15.10
2023-02-01T17:24:24.949Z,16.98
2023-02-01T17:26:53.976Z,17.20
2023-02-01T17:29:22.565Z,19.65
2023-02-01T17:31:54.971Z,20.42
2023-02-01T17:34:23.461Z,12.32
2023-02-01T17:36:51.553Z,14.13
2023-02-01T17:39:38.153Z,14.00
2023-02-01T17:42:11.398Z,11.35
2023-02-01T17:44:39.391Z,18.30
2023-02-01T17:47:07.215Z,16.73
2023-02-01T17:49:36.089Z,20.00
2023-02-01T17:52:03.951Z,18.17
2023-02-01T17:54:31.706Z,18.15
2023-02-01T17:57:01.722Z,16.13
2023-02-01T17:59:54.472Z,16.02
2023-02-01T18:02:23.800Z,14.57
2023-02-01T18:04:52.165Z,19.40
2023-02-01T18:07:21.209Z,21.63
2023-02-01T18:09:48.852Z,10.82
2023-02-01T18:12:22.142Z,18.80
2023-02-01T18:14:49.865Z,18.15
2023-02-01T18:17:17.524Z,13.38
2023-02-01T18:19:45.410Z,16.45
2023-02-01T18:22:23.113Z,17.20
2023-02-01T18:24:50.975Z,16.80
2023-02-01T18:27:18.769Z,22.30
2023-02-01T18:29:46.463Z,14.45
2023-02-01T18:32:14.280Z,16.30
2023-02-01T18:34:42.142Z,13.95
2023-02-01T18:37:10.037Z,14.48
2023-02-01T18:39:39.327Z,10.98
2023-02-01T18:42:10.308Z,10.25
2023-02-01T18:44:38.097Z,13.18
2023-02-01T18:47:05.813Z,12.23
2023-02-01T18:49:34.054Z,17.02
2023-02-01T18:52:02.965Z,13.75
2023-02-01T18:54:30.921Z,15.52
2023-02-01T18:56:58.922Z,17.52
2023-02-01T18:59:52.110Z,17.80
2023-02-01T19:02:19.983Z,17.42
2023-02-01T19:04:47.664Z,14.02
2023-02-01T19:07:15.630Z,16.98
2023-02-01T19:09:43.527Z,19.48
2023-02-01T19:12:11.508Z,14.50
2023-02-01T19:14:39.143Z,14.85
2023-02-01T19:17:06.737Z,21.85
2023-02-01T19:19:34.743Z,15.23
2023-02-01T19:22:03.929Z,11.73
2023-02-01T19:24:31.664Z,15.88
2023-02-01T19:26:59.603Z,11.93
2023-02-01T19:29:27.490Z,15.80
2023-02-01T19:31:57.504Z,16.35
2023-02-01T19:34:25.453Z,17.02
2023-02-01T19:36:54.825Z,13.95
2023-02-01T19:39:24.935Z,18.88
2023-02-01T19:41:53.087Z,18.17
2023-02-01T19:44:21.033Z,19.33
2023-02-01T19:46:49.157Z,14.75
2023-02-01T19:49:16.921Z,15.30
2023-02-01T19:51:45.006Z,10.43
2023-02-01T19:54:12.929Z,17.33
2023-02-01T19:56:40.927Z,14.30
2023-02-01T19:59:08.943Z,8.70
2023-02-01T20:01:37.817Z,13.25
2023-02-01T20:04:06.624Z,16.88
2023-02-01T20:06:39.847Z,17.52
2023-02-01T20:09:07.730Z,17.58
2023-02-01T20:11:35.556Z,13.80
2023-02-01T20:14:03.278Z,16.40
2023-02-01T20:16:31.276Z,20.25
2023-02-01T20:18:59.353Z,16.23
2023-02-01T20:21:28.131Z,15.93
2023-02-01T20:23:55.731Z,10.75
2023-02-01T20:26:25.316Z,15.18
2023-02-01T20:28:53.363Z,18.83
2023-02-01T20:31:24.023Z,9.85
2023-02-01T20:33:52.785Z,12.18
2023-02-01T20:36:20.458Z,17.23
2023-02-01T20:38:48.069Z,12.23
2023-02-01T20:41:15.736Z,11.88
2023-02-01T20:43:45.111Z,22.20
2023-02-01T20:46:14.201Z,14.88
2023-02-01T20:48:47.460Z,19.42
2023-02-01T20:51:17.462Z,12.57
2023-02-01T20:53:47.703Z,12.80
2023-02-01T20:56:16.385Z,14.07
2023-02-01T20:58:44.518Z,23.65
2023-02-01T21:01:13.494Z,14.80
2023-02-01T21:06:11.903Z,12.93
2023-02-01T21:08:41.413Z,15.63
2023-02-01T21:11:14.398Z,15.52
2023-02-01T21:13:50.381Z,15.88
2023-02-01T21:16:21.085Z,14.25
2023-02-01T21:18:53.577Z,17.42
2023-02-01T21:21:21.530Z,15.88
2023-02-01T21:23:49.827Z,11.85
2023-02-01T21:26:21.919Z,17.15
2023-02-01T21:28:52.476Z,17.23
2023-02-01T21:31:22.226Z,17.50
2023-02-01T21:33:50.273Z,20.35
2023-02-01T21:36:19.348Z,24.10
2023-02-01T21:41:42.607Z,19.27
2023-02-01T21:44:14.624Z,20.15
2023-02-01T21:46:44.355Z,12.55
2023-02-01T21:49:12.401Z,15.35
2023-02-01T21:51:40.368Z,18.08
2023-02-01T21:54:09.990Z,15.35
2023-02-01T21:56:39.955Z,18.48
2023-02-01T21:59:09.995Z,14.20
2023-02-01T22:01:40.633Z,15.48
2023-02-01T22:04:10.160Z,14.57
2023-02-01T22:06:41.480Z,13.38
2023-02-01T22:09:19.892Z,14.82
2023-02-01T22:11:49.227Z,12.50
2023-02-01T22:14:17.664Z,13.70
2023-02-01T22:16:45.453Z,10.82
2023-02-01T22:19:13.955Z,14.68
2023-02-01T22:21:45.051Z,12.13
2023-02-01T22:24:22.860Z,17.73
2023-02-01T22:26:51.154Z,13.30
2023-02-01T22:29:23.782Z,16.90
2023-02-01T22:31:51.585Z,17.02
2023-02-01T22:34:19.299Z,23.00
2023-02-01T22:36:48.774Z,10.90
2023-02-01T22:39:16.366Z,17.30
2023-02-01T22:41:44.031Z,15.60
2023-02-01T22:44:11.812Z,22.60
2023-02-01T22:46:40.144Z,16.77
2023-02-01T22:49:08.003Z,14.27
2023-02-01T22:51:36.213Z,10.85
2023-02-01T22:54:03.859Z,15.17
2023-02-01T22:56:35.721Z,14.38
2023-02-01T22:59:07.118Z,14.75
2023-02-01T23:01:35.367Z,16.30
2023-02-01T23:04:05.800Z,13.15
2023-02-01T23:06:34.930Z,17.50
2023-02-01T23:11:39.881Z,19.95
2023-02-01T23:14:08.366Z,12.73
2023-02-01T23:16:36.491Z,21.88
2023-02-01T23:19:05.322Z,21.25
2023-02-01T23:21:33.726Z,15.15
2023-02-01T23:24:04.610Z,13.75
2023-02-01T23:26:33.438Z,13.40
2023-02-01T23:31:33.058Z,11.55
2023-02-01T23:34:02.632Z,12.68
2023-02-01T23:36:32.947Z,12.77
2023-02-01T23:39:01.662Z,17.17
2023-02-01T23:41:30.159Z,16.83
2023-02-01T23:43:58.267Z,8.68
2023-02-01T23:46:36.610Z,12.75
2023-02-01T23:49:07.800Z,14.73
2023-02-01T23:51:36.816Z,13.40
2023-02-01T23:54:06.071Z,14.13
2023-02-01T23:56:38.417Z,11.85
2023-02-01T23:59:13.016Z,11.30
